sensor_id;sensor_type;location;lat;lon;timestamp;P1;durP1;ratioP1;P2;durP2;ratioP2
54539;SDS011;40438;52.992;18.604;2023-03-17T00:00:29;13.32;;;7.13;;
54539;SDS011;40438;52.992;18.604;2023-03-17T00:02:55;13.98;;;7.50;;
54539;SDS011;40438;52.992;18.604;2023-03-17T00:05:22;13.13;;;7.63;;
54539;SDS011;40438;52.992;18.604;2023-03-17T00:07:48;15.13;;;7.15;;
54539;SDS011;40438;52.992;18.604;2023-03-17T00:10:16;12.43;;;6.78;;
54539;SDS011;40438;52.992;18.604;2023-03-17T00:12:46;13.18;;;7.03;;
54539;SDS011;40438;52.992;18.604;2023-03-17T00:15:12;11.30;;;6.45;;
54539;SDS011;40438;52.992;18.604;2023-03-17T00:17:38;13.18;;;7.00;;
54539;SDS011;40438;52.992;18.604;2023-03-17T00:20:04;13.27;;;6.55;;
54539;SDS011;40438;52.992;18.604;2023-03-17T00:22:31;15.07;;;7.00;;
54539;SDS011;40438;52.992;18.604;2023-03-17T00:24:57;12.93;;;6.72;;
54539;SDS011;40438;52.992;18.604;2023-03-17T00:27:22;12.63;;;6.80;;
54539;SDS011;40438;52.992;18.604;2023-03-17T00:29:50;14.27;;;7.28;;
54539;SDS011;40438;52.992;18.604;2023-03-17T00:32:17;13.65;;;7.50;;
54539;SDS011;40438;52.992;18.604;2023-03-17T00:34:50;14.60;;;7.10;;
54539;SDS011;40438;52.992;18.604;2023-03-17T00:37:15;14.20;;;6.88;;
54539;SDS011;40438;52.992;18.604;2023-03-17T00:39:41;13.00;;;6.63;;
54539;SDS011;40438;52.992;18.604;2023-03-17T00:42:07;14.50;;;7.28;;
54539;SDS011;40438;52.992;18.604;2023-03-17T00:44:33;10.85;;;6.78;;
54539;SDS011;40438;52.992;18.604;2023-03-17T00:47:00;14.23;;;7.45;;
54539;SDS011;40438;52.992;18.604;2023-03-17T00:49:26;12.50;;;6.97;;
54539;SDS011;40438;52.992;18.604;2023-03-17T00:51:52;12.32;;;7.00;;
54539;SDS011;40438;52.992;18.604;2023-03-17T00:54:20;13.43;;;6.68;;
54539;SDS011;40438;52.992;18.604;2023-03-17T00:56:46;12.48;;;7.13;;
54539;SDS011;40438;52.992;18.604;2023-03-17T00:59:16;14.93;;;7.40;;
54539;SDS011;40438;52.992;18.604;2023-03-17T01:01:46;13.07;;;7.35;;
54539;SDS011;40438;52.992;18.604;2023-03-17T01:04:13;14.20;;;6.97;;
54539;SDS011;40438;52.992;18.604;2023-03-17T01:06:39;15.65;;;8.07;;
54539;SDS011;40438;52.992;18.604;2023-03-17T01:09:05;17.05;;;7.05;;
54539;SDS011;40438;52.992;18.604;2023-03-17T01:11:31;15.02;;;7.25;;
54539;SDS011;40438;52.992;18.604;2023-03-17T01:13:56;13.55;;;7.60;;
54539;SDS011;40438;52.992;18.604;2023-03-17T01:16:22;11.50;;;7.50;;
54539;SDS011;40438;52.992;18.604;2023-03-17T01:18:48;17.58;;;7.82;;
54539;SDS011;40438;52.992;18.604;2023-03-17T01:21:15;17.52;;;7.90;;
54539;SDS011;40438;52.992;18.604;2023-03-17T01:23:41;12.77;;;7.35;;
54539;SDS011;40438;52.992;18.604;2023-03-17T01:26:06;14.95;;;8.13;;
54539;SDS011;40438;52.992;18.604;2023-03-17T01:28:33;17.48;;;8.07;;
54539;SDS011;40438;52.992;18.604;2023-03-17T01:30:59;16.02;;;8.20;;
54539;SDS011;40438;52.992;18.604;2023-03-17T01:33:25;15.15;;;8.18;;
54539;SDS011;40438;52.992;18.604;2023-03-17T01:35:50;15.82;;;7.88;;
54539;SDS011;40438;52.992;18.604;2023-03-17T01:38:18;17.73;;;7.93;;
54539;SDS011;40438;52.992;18.604;2023-03-17T01:40:44;18.65;;;8.32;;
54539;SDS011;40438;52.992;18.604;2023-03-17T01:43:16;17.30;;;8.75;;
54539;SDS011;40438;52.992;18.604;2023-03-17T01:48:50;14.57;;;8.15;;
54539;SDS011;40438;52.992;18.604;2023-03-17T01:53:50;20.35;;;8.75;;
54539;SDS011;40438;52.992;18.604;2023-03-17T01:56:18;19.73;;;9.55;;
54539;SDS011;40438;52.992;18.604;2023-03-17T01:58:44;20.23;;;9.27;;
54539;SDS011;40438;52.992;18.604;2023-03-17T02:01:12;18.92;;;8.77;;
54539;SDS011;40438;52.992;18.604;2023-03-17T02:03:38;16.17;;;8.60;;
54539;SDS011;40438;52.992;18.604;2023-03-17T02:06:04;22.90;;;9.85;;
54539;SDS011;40438;52.992;18.604;2023-03-17T02:08:30;21.00;;;9.43;;
54539;SDS011;40438;52.992;18.604;2023-03-17T02:10:57;19.23;;;9.27;;
54539;SDS011;40438;52.992;18.604;2023-03-17T02:13:23;17.48;;;8.73;;
54539;SDS011;40438;52.992;18.604;2023-03-17T02:15:52;22.25;;;9.73;;
54539;SDS011;40438;52.992;18.604;2023-03-17T02:18:18;17.75;;;8.75;;
54539;SDS011;40438;52.992;18.604;2023-03-17T02:23:54;16.75;;;8.82;;
54539;SDS011;40438;52.992;18.604;2023-03-17T02:26:20;17.25;;;8.93;;
54539;SDS011;40438;52.992;18.604;2023-03-17T02:28:48;19.90;;;8.98;;
54539;SDS011;40438;52.992;18.604;2023-03-17T02:31:13;20.27;;;9.00;;
54539;SDS011;40438;52.992;18.604;2023-03-17T02:33:40;17.90;;;9.00;;
54539;SDS011;40438;52.992;18.604;2023-03-17T02:36:06;18.58;;;9.20;;
54539;SDS011;40438;52.992;18.604;2023-03-17T02:38:33;20.90;;;9.52;;
54539;SDS011;40438;52.992;18.604;2023-03-17T02:40:59;18.63;;;9.82;;
54539;SDS011;40438;52.992;18.604;2023-03-17T02:43:25;18.55;;;9.35;;
54539;SDS011;40438;52.992;18.604;2023-03-17T02:45:54;22.42;;;9.25;;
54539;SDS011;40438;52.992;18.604;2023-03-17T02:48:20;15.63;;;8.80;;
54539;SDS011;40438;52.992;18.604;2023-03-17T02:50:46;17.58;;;8.43;;
54539;SDS011;40438;52.992;18.604;2023-03-17T02:53:11;22.70;;;8.88;;
54539;SDS011;40438;52.992;18.604;2023-03-17T02:55:39;18.38;;;9.00;;
54539;SDS011;40438;52.992;18.604;2023-03-17T02:58:04;16.25;;;8.93;;
54539;SDS011;40438;52.992;18.604;2023-03-17T03:00:30;19.35;;;9.13;;
54539;SDS011;40438;52.992;18.604;2023-03-17T03:02:56;17.77;;;10.15;;
54539;SDS011;40438;52.992;18.604;2023-03-17T03:05:21;17.10;;;8.52;;
54539;SDS011;40438;52.992;18.604;2023-03-17T03:07:47;20.33;;;10.13;;
54539;SDS011;40438;52.992;18.604;2023-03-17T03:10:13;18.25;;;8.82;;
54539;SDS011;40438;52.992;18.604;2023-03-17T03:12:40;17.80;;;8.82;;
54539;SDS011;40438;52.992;18.604;2023-03-17T03:15:06;19.20;;;8.80;;
54539;SDS011;40438;52.992;18.604;2023-03-17T03:17:32;22.13;;;9.63;;
54539;SDS011;40438;52.992;18.604;2023-03-17T03:19:58;20.75;;;9.98;;
54539;SDS011;40438;52.992;18.604;2023-03-17T03:22:24;18.98;;;9.02;;
54539;SDS011;40438;52.992;18.604;2023-03-17T03:24:50;22.83;;;10.23;;
54539;SDS011;40438;52.992;18.604;2023-03-17T03:27:15;21.13;;;9.65;;
54539;SDS011;40438;52.992;18.604;2023-03-17T03:29:43;17.10;;;8.90;;
54539;SDS011;40438;52.992;18.604;2023-03-17T03:32:08;20.80;;;9.90;;
54539;SDS011;40438;52.992;18.604;2023-03-17T03:34:34;17.13;;;8.82;;
54539;SDS011;40438;52.992;18.604;2023-03-17T03:37:00;18.85;;;9.38;;
54539;SDS011;40438;52.992;18.604;2023-03-17T03:39:26;17.73;;;9.52;;
54539;SDS011;40438;52.992;18.604;2023-03-17T03:41:52;17.30;;;8.60;;
54539;SDS011;40438;52.992;18.604;2023-03-17T03:44:18;17.17;;;8.80;;
54539;SDS011;40438;52.992;18.604;2023-03-17T03:46:45;17.02;;;9.25;;
54539;SDS011;40438;52.992;18.604;2023-03-17T03:49:10;17.25;;;9.20;;
54539;SDS011;40438;52.992;18.604;2023-03-17T03:51:36;18.90;;;9.80;;
54539;SDS011;40438;52.992;18.604;2023-03-17T03:54:02;17.10;;;9.70;;
54539;SDS011;40438;52.992;18.604;2023-03-17T03:56:28;18.70;;;9.70;;
54539;SDS011;40438;52.992;18.604;2023-03-17T03:58:54;15.70;;;8.25;;
54539;SDS011;40438;52.992;18.604;2023-03-17T04:01:19;16.60;;;8.77;;
54539;SDS011;40438;52.992;18.604;2023-03-17T04:03:46;14.90;;;8.18;;
54539;SDS011;40438;52.992;18.604;2023-03-17T04:06:12;18.05;;;9.45;;
54539;SDS011;40438;52.992;18.604;2023-03-17T04:08:38;19.00;;;9.30;;
54539;SDS011;40438;52.992;18.604;2023-03-17T04:11:04;15.93;;;9.02;;
54539;SDS011;40438;52.992;18.604;2023-03-17T04:13:30;17.70;;;9.07;;
54539;SDS011;40438;52.992;18.604;2023-03-17T04:15:55;16.75;;;8.63;;
54539;SDS011;40438;52.992;18.604;2023-03-17T04:18:21;20.55;;;9.40;;
54539;SDS011;40438;52.992;18.604;2023-03-17T04:20:48;18.27;;;9.52;;
54539;SDS011;40438;52.992;18.604;2023-03-17T04:23:14;18.00;;;9.02;;
54539;SDS011;40438;52.992;18.604;2023-03-17T04:25:40;18.27;;;9.07;;
54539;SDS011;40438;52.992;18.604;2023-03-17T04:28:05;18.17;;;9.60;;
54539;SDS011;40438;52.992;18.604;2023-03-17T04:30:31;18.60;;;9.32;;
54539;SDS011;40438;52.992;18.604;2023-03-17T04:32:57;17.55;;;8.75;;
54539;SDS011;40438;52.992;18.604;2023-03-17T04:35:23;17.98;;;8.73;;
54539;SDS011;40438;52.992;18.604;2023-03-17T04:37:50;17.00;;;8.82;;
54539;SDS011;40438;52.992;18.604;2023-03-17T04:40:16;17.98;;;9.38;;
54539;SDS011;40438;52.992;18.604;2023-03-17T04:42:42;16.13;;;9.50;;
54539;SDS011;40438;52.992;18.604;2023-03-17T04:45:09;16.60;;;9.05;;
54539;SDS011;40438;52.992;18.604;2023-03-17T04:47:36;15.10;;;9.35;;
54539;SDS011;40438;52.992;18.604;2023-03-17T04:50:02;14.27;;;8.63;;
54539;SDS011;40438;52.992;18.604;2023-03-17T04:52:28;18.38;;;9.35;;
54539;SDS011;40438;52.992;18.604;2023-03-17T04:54:55;16.83;;;8.45;;
54539;SDS011;40438;52.992;18.604;2023-03-17T04:57:21;16.60;;;8.80;;
54539;SDS011;40438;52.992;18.604;2023-03-17T04:59:47;17.05;;;9.20;;
54539;SDS011;40438;52.992;18.604;2023-03-17T05:02:13;17.13;;;9.07;;
54539;SDS011;40438;52.992;18.604;2023-03-17T05:04:38;16.55;;;8.73;;
54539;SDS011;40438;52.992;18.604;2023-03-17T05:07:04;17.88;;;9.15;;
54539;SDS011;40438;52.992;18.604;2023-03-17T05:09:30;15.80;;;9.52;;
54539;SDS011;40438;52.992;18.604;2023-03-17T05:11:57;17.42;;;9.20;;
54539;SDS011;40438;52.992;18.604;2023-03-17T05:14:23;26.25;;;9.48;;
54539;SDS011;40438;52.992;18.604;2023-03-17T05:16:49;21.17;;;9.55;;
54539;SDS011;40438;52.992;18.604;2023-03-17T05:19:14;18.23;;;9.55;;
54539;SDS011;40438;52.992;18.604;2023-03-17T05:21:41;14.73;;;8.50;;
54539;SDS011;40438;52.992;18.604;2023-03-17T05:24:06;19.30;;;9.25;;
54539;SDS011;40438;52.992;18.604;2023-03-17T05:26:32;17.50;;;9.05;;
54539;SDS011;40438;52.992;18.604;2023-03-17T05:29:00;15.50;;;8.63;;
54539;SDS011;40438;52.992;18.604;2023-03-17T05:31:26;14.77;;;8.48;;
54539;SDS011;40438;52.992;18.604;2023-03-17T05:33:51;16.80;;;8.77;;
54539;SDS011;40438;52.992;18.604;2023-03-17T05:36:17;15.55;;;8.68;;
54539;SDS011;40438;52.992;18.604;2023-03-17T05:38:43;17.38;;;8.60;;
54539;SDS011;40438;52.992;18.604;2023-03-17T05:41:09;17.45;;;9.48;;
54539;SDS011;40438;52.992;18.604;2023-03-17T05:43:35;17.15;;;9.05;;
54539;SDS011;40438;52.992;18.604;2023-03-17T05:46:02;16.08;;;8.45;;
54539;SDS011;40438;52.992;18.604;2023-03-17T05:48:28;19.30;;;8.38;;
54539;SDS011;40438;52.992;18.604;2023-03-17T05:50:54;19.40;;;8.93;;
54539;SDS011;40438;52.992;18.604;2023-03-17T05:53:19;15.90;;;8.27;;
54539;SDS011;40438;52.992;18.604;2023-03-17T05:55:45;15.70;;;8.45;;
54539;SDS011;40438;52.992;18.604;2023-03-17T05:58:11;14.30;;;8.15;;
54539;SDS011;40438;52.992;18.604;2023-03-17T06:00:37;20.50;;;8.40;;
54539;SDS011;40438;52.992;18.604;2023-03-17T06:03:04;15.80;;;8.27;;
54539;SDS011;40438;52.992;18.604;2023-03-17T06:05:30;19.85;;;8.18;;
54539;SDS011;40438;52.992;18.604;2023-03-17T06:07:56;15.10;;;8.38;;
54539;SDS011;40438;52.992;18.604;2023-03-17T06:10:21;16.00;;;8.50;;
54539;SDS011;40438;52.992;18.604;2023-03-17T06:12:47;15.35;;;9.32;;
54539;SDS011;40438;52.992;18.604;2023-03-17T06:15:13;15.48;;;8.10;;
54539;SDS011;40438;52.992;18.604;2023-03-17T06:17:39;14.82;;;7.53;;
54539;SDS011;40438;52.992;18.604;2023-03-17T06:20:07;14.73;;;7.60;;
54539;SDS011;40438;52.992;18.604;2023-03-17T06:22:33;14.98;;;7.80;;
54539;SDS011;40438;52.992;18.604;2023-03-17T06:24:59;20.35;;;8.65;;
54539;SDS011;40438;52.992;18.604;2023-03-17T06:27:25;19.65;;;8.10;;
54539;SDS011;40438;52.992;18.604;2023-03-17T06:29:51;16.77;;;8.48;;
54539;SDS011;40438;52.992;18.604;2023-03-17T06:32:16;16.75;;;8.15;;
54539;SDS011;40438;52.992;18.604;2023-03-17T06:34:42;16.75;;;8.27;;
54539;SDS011;40438;52.992;18.604;2023-03-17T06:37:09;19.17;;;8.63;;
54539;SDS011;40438;52.992;18.604;2023-03-17T06:39:35;18.85;;;7.93;;
54539;SDS011;40438;52.992;18.604;2023-03-17T06:42:01;16.42;;;8.65;;
54539;SDS011;40438;52.992;18.604;2023-03-17T06:44:27;19.73;;;9.32;;
54539;SDS011;40438;52.992;18.604;2023-03-17T06:46:53;17.92;;;8.73;;
54539;SDS011;40438;52.992;18.604;2023-03-17T06:49:19;13.93;;;7.95;;
54539;SDS011;40438;52.992;18.604;2023-03-17T06:51:45;16.70;;;8.35;;
54539;SDS011;40438;52.992;18.604;2023-03-17T06:54:12;17.23;;;8.18;;
54539;SDS011;40438;52.992;18.604;2023-03-17T06:56:38;16.52;;;7.90;;
54539;SDS011;40438;52.992;18.604;2023-03-17T06:59:03;16.45;;;7.88;;
54539;SDS011;40438;52.992;18.604;2023-03-17T07:01:29;15.07;;;7.65;;
54539;SDS011;40438;52.992;18.604;2023-03-17T07:03:55;14.30;;;7.90;;
54539;SDS011;40438;52.992;18.604;2023-03-17T07:06:21;15.00;;;8.10;;
54539;SDS011;40438;52.992;18.604;2023-03-17T07:08:46;22.08;;;7.18;;
54539;SDS011;40438;52.992;18.604;2023-03-17T07:11:14;14.30;;;7.28;;
54539;SDS011;40438;52.992;18.604;2023-03-17T07:13:39;17.40;;;7.82;;
54539;SDS011;40438;52.992;18.604;2023-03-17T07:16:05;18.67;;;7.72;;
54539;SDS011;40438;52.992;18.604;2023-03-17T07:18:31;23.38;;;8.25;;
54539;SDS011;40438;52.992;18.604;2023-03-17T07:20:57;15.18;;;7.13;;
54539;SDS011;40438;52.992;18.604;2023-03-17T07:23:22;16.63;;;8.13;;
54539;SDS011;40438;52.992;18.604;2023-03-17T07:25:48;12.20;;;7.05;;
54539;SDS011;40438;52.992;18.604;2023-03-17T07:28:15;17.98;;;7.65;;
54539;SDS011;40438;52.992;18.604;2023-03-17T07:30:41;14.43;;;8.10;;
54539;SDS011;40438;52.992;18.604;2023-03-17T07:33:07;15.70;;;7.30;;
54539;SDS011;40438;52.992;18.604;2023-03-17T07:35:33;14.32;;;7.18;;
54539;SDS011;40438;52.992;18.604;2023-03-17T07:37:59;19.48;;;7.47;;
54539;SDS011;40438;52.992;18.604;2023-03-17T07:40:25;19.00;;;7.13;;
54539;SDS011;40438;52.992;18.604;2023-03-17T07:42:50;19.75;;;7.28;;
54539;SDS011;40438;52.992;18.604;2023-03-17T07:45:18;12.93;;;6.93;;
54539;SDS011;40438;52.992;18.604;2023-03-17T07:47:43;13.77;;;6.95;;
54539;SDS011;40438;52.992;18.604;2023-03-17T07:50:09;11.18;;;6.53;;
54539;SDS011;40438;52.992;18.604;2023-03-17T07:52:36;14.80;;;6.65;;
54539;SDS011;40438;52.992;18.604;2023-03-17T07:55:03;111.13;;;34.67;;
54539;SDS011;40438;52.992;18.604;2023-03-17T07:57:29;41.75;;;13.50;;
54539;SDS011;40438;52.992;18.604;2023-03-17T07:59:55;159.07;;;48.72;;
54539;SDS011;40438;52.992;18.604;2023-03-17T08:02:22;164.15;;;48.70;;
54539;SDS011;40438;52.992;18.604;2023-03-17T08:04:48;196.60;;;56.47;;
54539;SDS011;40438;52.992;18.604;2023-03-17T08:07:14;148.32;;;45.88;;
54539;SDS011;40438;52.992;18.604;2023-03-17T08:09:39;134.43;;;38.97;;
54539;SDS011;40438;52.992;18.604;2023-03-17T08:12:05;171.23;;;44.45;;
54539;SDS011;40438;52.992;18.604;2023-03-17T08:14:31;154.00;;;40.60;;
54539;SDS011;40438;52.992;18.604;2023-03-17T08:16:57;120.25;;;34.83;;
54539;SDS011;40438;52.992;18.604;2023-03-17T08:19:24;121.70;;;37.97;;
54539;SDS011;40438;52.992;18.604;2023-03-17T08:21:50;138.13;;;39.95;;
54539;SDS011;40438;52.992;18.604;2023-03-17T08:24:16;115.63;;;38.17;;
54539;SDS011;40438;52.992;18.604;2023-03-17T08:26:42;126.28;;;37.75;;
54539;SDS011;40438;52.992;18.604;2023-03-17T08:29:07;117.78;;;37.42;;
54539;SDS011;40438;52.992;18.604;2023-03-17T08:31:33;114.70;;;36.17;;
54539;SDS011;40438;52.992;18.604;2023-03-17T08:34:00;122.75;;;36.53;;
54539;SDS011;40438;52.992;18.604;2023-03-17T08:36:27;106.38;;;35.20;;
54539;SDS011;40438;52.992;18.604;2023-03-17T08:38:53;108.28;;;33.40;;
54539;SDS011;40438;52.992;18.604;2023-03-17T08:41:20;105.53;;;32.45;;
54539;SDS011;40438;52.992;18.604;2023-03-17T08:43:48;111.07;;;33.30;;
54539;SDS011;40438;52.992;18.604;2023-03-17T08:46:15;110.10;;;32.67;;
54539;SDS011;40438;52.992;18.604;2023-03-17T08:48:42;102.40;;;29.40;;
54539;SDS011;40438;52.992;18.604;2023-03-17T08:51:08;89.40;;;27.73;;
54539;SDS011;40438;52.992;18.604;2023-03-17T08:53:36;99.25;;;30.38;;
54539;SDS011;40438;52.992;18.604;2023-03-17T08:56:02;93.78;;;29.45;;
54539;SDS011;40438;52.992;18.604;2023-03-17T08:58:28;89.70;;;28.15;;
54539;SDS011;40438;52.992;18.604;2023-03-17T09:00:56;106.50;;;30.75;;
54539;SDS011;40438;52.992;18.604;2023-03-17T09:03:23;85.50;;;28.73;;
54539;SDS011;40438;52.992;18.604;2023-03-17T09:05:48;88.00;;;29.63;;
54539;SDS011;40438;52.992;18.604;2023-03-17T09:08:14;93.32;;;32.20;;
54539;SDS011;40438;52.992;18.604;2023-03-17T09:10:41;79.82;;;31.48;;
54539;SDS011;40438;52.992;18.604;2023-03-17T09:13:07;82.65;;;30.00;;
54539;SDS011;40438;52.992;18.604;2023-03-17T09:15:33;86.18;;;30.80;;
54539;SDS011;40438;52.992;18.604;2023-03-17T09:17:59;77.38;;;29.30;;
54539;SDS011;40438;52.992;18.604;2023-03-17T09:20:25;87.05;;;29.13;;
54539;SDS011;40438;52.992;18.604;2023-03-17T09:22:51;87.30;;;27.98;;
54539;SDS011;40438;52.992;18.604;2023-03-17T09:25:17;72.10;;;25.80;;
54539;SDS011;40438;52.992;18.604;2023-03-17T09:27:44;68.25;;;25.90;;
54539;SDS011;40438;52.992;18.604;2023-03-17T09:30:10;65.18;;;25.58;;
54539;SDS011;40438;52.992;18.604;2023-03-17T09:32:36;65.50;;;25.00;;
54539;SDS011;40438;52.992;18.604;2023-03-17T09:35:02;66.30;;;24.80;;
54539;SDS011;40438;52.992;18.604;2023-03-17T09:37:28;63.50;;;24.05;;
54539;SDS011;40438;52.992;18.604;2023-03-17T09:39:54;54.45;;;22.13;;
54539;SDS011;40438;52.992;18.604;2023-03-17T09:42:23;68.18;;;25.63;;
54539;SDS011;40438;52.992;18.604;2023-03-17T09:45:05;61.50;;;23.05;;
54539;SDS011;40438;52.992;18.604;2023-03-17T09:50:26;61.25;;;22.65;;
54539;SDS011;40438;52.992;18.604;2023-03-17T09:52:56;52.50;;;20.40;;
54539;SDS011;40438;52.992;18.604;2023-03-17T09:55:24;60.53;;;20.65;;
54539;SDS011;40438;52.992;18.604;2023-03-17T09:57:52;47.25;;;19.23;;
54539;SDS011;40438;52.992;18.604;2023-03-17T10:00:21;49.17;;;18.08;;
54539;SDS011;40438;52.992;18.604;2023-03-17T10:02:49;49.75;;;18.65;;
54539;SDS011;40438;52.992;18.604;2023-03-17T10:05:17;52.30;;;20.25;;
54539;SDS011;40438;52.992;18.604;2023-03-17T10:07:45;55.22;;;20.67;;
54539;SDS011;40438;52.992;18.604;2023-03-17T10:10:18;55.53;;;19.30;;
54539;SDS011;40438;52.992;18.604;2023-03-17T10:12:49;47.90;;;18.77;;
54539;SDS011;40438;52.992;18.604;2023-03-17T10:15:24;46.92;;;18.45;;
54539;SDS011;40438;52.992;18.604;2023-03-17T10:17:55;47.95;;;18.65;;
54539;SDS011;40438;52.992;18.604;2023-03-17T10:20:23;45.85;;;17.90;;
54539;SDS011;40438;52.992;18.604;2023-03-17T10:22:52;49.97;;;17.52;;
54539;SDS011;40438;52.992;18.604;2023-03-17T10:25:20;42.90;;;17.13;;
54539;SDS011;40438;52.992;18.604;2023-03-17T10:27:50;51.80;;;16.25;;
54539;SDS011;40438;52.992;18.604;2023-03-17T10:30:20;37.90;;;15.73;;
54539;SDS011;40438;52.992;18.604;2023-03-17T10:32:48;43.40;;;15.52;;
54539;SDS011;40438;52.992;18.604;2023-03-17T10:35:14;38.55;;;16.02;;
54539;SDS011;40438;52.992;18.604;2023-03-17T10:37:41;40.10;;;15.98;;
54539;SDS011;40438;52.992;18.604;2023-03-17T10:40:17;35.50;;;14.95;;
54539;SDS011;40438;52.992;18.604;2023-03-17T10:42:46;40.97;;;16.05;;
54539;SDS011;40438;52.992;18.604;2023-03-17T10:45:13;36.17;;;14.43;;
54539;SDS011;40438;52.992;18.604;2023-03-17T10:47:45;33.38;;;14.60;;
54539;SDS011;40438;52.992;18.604;2023-03-17T10:50:17;28.80;;;12.65;;
54539;SDS011;40438;52.992;18.604;2023-03-17T10:52:45;30.35;;;13.00;;
54539;SDS011;40438;52.992;18.604;2023-03-17T10:55:13;38.85;;;13.55;;
54539;SDS011;40438;52.992;18.604;2023-03-17T10:57:40;37.65;;;13.02;;
54539;SDS011;40438;52.992;18.604;2023-03-17T11:00:16;31.40;;;13.30;;
54539;SDS011;40438;52.992;18.604;2023-03-17T11:02:45;32.40;;;13.45;;
54539;SDS011;40438;52.992;18.604;2023-03-17T11:05:17;29.60;;;12.47;;
54539;SDS011;40438;52.992;18.604;2023-03-17T11:07:44;31.17;;;12.27;;
54539;SDS011;40438;52.992;18.604;2023-03-17T11:10:13;30.42;;;11.43;;
54539;SDS011;40438;52.992;18.604;2023-03-17T11:12:42;31.95;;;12.38;;
54539;SDS011;40438;52.992;18.604;2023-03-17T11:15:09;31.15;;;12.85;;
54539;SDS011;40438;52.992;18.604;2023-03-17T11:17:38;32.58;;;12.18;;
54539;SDS011;40438;52.992;18.604;2023-03-17T11:20:22;30.10;;;11.38;;
54539;SDS011;40438;52.992;18.604;2023-03-17T11:22:56;31.10;;;11.38;;
54539;SDS011;40438;52.992;18.604;2023-03-17T11:25:27;29.75;;;12.90;;
54539;SDS011;40438;52.992;18.604;2023-03-17T11:27:55;22.40;;;11.02;;
54539;SDS011;40438;52.992;18.604;2023-03-17T11:30:30;24.58;;;10.93;;
54539;SDS011;40438;52.992;18.604;2023-03-17T11:33:01;26.23;;;10.82;;
54539;SDS011;40438;52.992;18.604;2023-03-17T11:35:43;22.67;;;10.65;;
54539;SDS011;40438;52.992;18.604;2023-03-17T11:38:24;23.35;;;9.95;;
54539;SDS011;40438;52.992;18.604;2023-03-17T11:40:59;24.90;;;9.88;;
54539;SDS011;40438;52.992;18.604;2023-03-17T11:43:35;21.40;;;9.50;;
54539;SDS011;40438;52.992;18.604;2023-03-17T11:46:12;23.42;;;9.15;;
54539;SDS011;40438;52.992;18.604;2023-03-17T11:48:44;26.35;;;11.35;;
54539;SDS011;40438;52.992;18.604;2023-03-17T11:51:20;18.40;;;9.02;;
54539;SDS011;40438;52.992;18.604;2023-03-17T11:53:59;19.75;;;9.30;;
54539;SDS011;40438;52.992;18.604;2023-03-17T11:56:34;22.40;;;9.48;;
54539;SDS011;40438;52.992;18.604;2023-03-17T11:59:05;21.40;;;10.07;;
54539;SDS011;40438;52.992;18.604;2023-03-17T12:01:39;21.25;;;8.82;;
54539;SDS011;40438;52.992;18.604;2023-03-17T12:04:14;15.02;;;8.13;;
54539;SDS011;40438;52.992;18.604;2023-03-17T12:06:48;19.40;;;8.77;;
54539;SDS011;40438;52.992;18.604;2023-03-17T12:09:18;22.13;;;8.93;;
54539;SDS011;40438;52.992;18.604;2023-03-17T12:11:49;16.88;;;7.85;;
54539;SDS011;40438;52.992;18.604;2023-03-17T12:14:20;18.35;;;7.82;;
54539;SDS011;40438;52.992;18.604;2023-03-17T12:16:51;17.48;;;7.30;;
54539;SDS011;40438;52.992;18.604;2023-03-17T12:19:21;14.95;;;7.85;;
54539;SDS011;40438;52.992;18.604;2023-03-17T12:21:53;17.70;;;8.75;;
54539;SDS011;40438;52.992;18.604;2023-03-17T12:24:24;16.42;;;7.75;;
54539;SDS011;40438;52.992;18.604;2023-03-17T12:26:56;18.48;;;8.13;;
54539;SDS011;40438;52.992;18.604;2023-03-17T12:29:24;18.25;;;7.63;;
54539;SDS011;40438;52.992;18.604;2023-03-17T12:32:00;18.02;;;8.32;;
54539;SDS011;40438;52.992;18.604;2023-03-17T12:34:30;15.07;;;7.50;;
54539;SDS011;40438;52.992;18.604;2023-03-17T12:37:02;17.45;;;7.80;;
54539;SDS011;40438;52.992;18.604;2023-03-17T12:39:29;17.13;;;8.38;;
54539;SDS011;40438;52.992;18.604;2023-03-17T12:41:59;17.88;;;8.30;;
54539;SDS011;40438;52.992;18.604;2023-03-17T12:44:50;17.48;;;8.10;;
54539;SDS011;40438;52.992;18.604;2023-03-17T12:47:37;18.42;;;8.23;;
54539;SDS011;40438;52.992;18.604;2023-03-17T12:50:28;18.60;;;7.78;;
54539;SDS011;40438;52.992;18.604;2023-03-17T12:53:16;18.70;;;7.85;;
54539;SDS011;40438;52.992;18.604;2023-03-17T12:55:50;17.48;;;7.05;;
54539;SDS011;40438;52.992;18.604;2023-03-17T12:58:21;16.80;;;7.65;;
54539;SDS011;40438;52.992;18.604;2023-03-17T13:00:55;14.30;;;7.65;;
54539;SDS011;40438;52.992;18.604;2023-03-17T13:03:27;15.43;;;6.95;;
54539;SDS011;40438;52.992;18.604;2023-03-17T13:05:57;17.17;;;7.53;;
54539;SDS011;40438;52.992;18.604;2023-03-17T13:08:27;11.35;;;6.68;;
54539;SDS011;40438;52.992;18.604;2023-03-17T13:13:44;14.20;;;7.25;;
54539;SDS011;40438;52.992;18.604;2023-03-17T13:16:26;14.68;;;6.93;;
54539;SDS011;40438;52.992;18.604;2023-03-17T13:19:10;14.73;;;6.80;;
54539;SDS011;40438;52.992;18.604;2023-03-17T13:21:38;17.30;;;7.78;;
54539;SDS011;40438;52.992;18.604;2023-03-17T13:27:09;14.10;;;7.03;;
54539;SDS011;40438;52.992;18.604;2023-03-17T13:29:45;13.68;;;6.70;;
54539;SDS011;40438;52.992;18.604;2023-03-17T13:35:12;15.18;;;6.88;;
54539;SDS011;40438;52.992;18.604;2023-03-17T13:37:43;11.73;;;5.85;;
54539;SDS011;40438;52.992;18.604;2023-03-17T13:40:22;17.33;;;7.03;;
54539;SDS011;40438;52.992;18.604;2023-03-17T13:42:59;18.00;;;7.20;;
54539;SDS011;40438;52.992;18.604;2023-03-17T13:45:35;19.08;;;7.82;;
54539;SDS011;40438;52.992;18.604;2023-03-17T13:48:23;14.68;;;7.22;;
54539;SDS011;40438;52.992;18.604;2023-03-17T13:50:52;14.95;;;7.28;;
54539;SDS011;40438;52.992;18.604;2023-03-17T13:53:21;19.73;;;6.10;;
54539;SDS011;40438;52.992;18.604;2023-03-17T13:56:07;15.80;;;6.35;;
54539;SDS011;40438;52.992;18.604;2023-03-17T13:58:47;17.17;;;8.60;;
54539;SDS011;40438;52.992;18.604;2023-03-17T14:01:16;25.90;;;11.40;;
54539;SDS011;40438;52.992;18.604;2023-03-17T14:03:45;26.77;;;12.73;;
54539;SDS011;40438;52.992;18.604;2023-03-17T14:06:12;41.88;;;23.15;;
54539;SDS011;40438;52.992;18.604;2023-03-17T14:08:42;41.70;;;24.90;;
54539;SDS011;40438;52.992;18.604;2023-03-17T14:11:16;34.20;;;20.33;;
54539;SDS011;40438;52.992;18.604;2023-03-17T14:13:48;39.47;;;23.45;;
54539;SDS011;40438;52.992;18.604;2023-03-17T14:16:22;39.83;;;24.15;;
54539;SDS011;40438;52.992;18.604;2023-03-17T14:18:53;39.42;;;24.15;;
54539;SDS011;40438;52.992;18.604;2023-03-17T14:21:23;38.15;;;23.63;;
54539;SDS011;40438;52.992;18.604;2023-03-17T14:23:53;39.78;;;24.88;;
54539;SDS011;40438;52.992;18.604;2023-03-17T14:26:22;40.15;;;24.67;;
54539;SDS011;40438;52.992;18.604;2023-03-17T14:28:49;43.60;;;24.13;;
54539;SDS011;40438;52.992;18.604;2023-03-17T14:31:18;43.95;;;24.55;;
54539;SDS011;40438;52.992;18.604;2023-03-17T14:33:47;34.23;;;23.63;;
54539;SDS011;40438;52.992;18.604;2023-03-17T14:36:12;35.33;;;24.55;;
54539;SDS011;40438;52.992;18.604;2023-03-17T14:38:44;35.78;;;23.65;;
54539;SDS011;40438;52.992;18.604;2023-03-17T14:41:15;32.85;;;22.30;;